Time;durP1;ratioP1;P1;durP2;ratioP2;P2;SDS_P1;SDS_P2;PMS_P1;PMS_P2;Temp;Humidity;BMP_temperature;BMP_pressure;BME280_temperature;BME280_humidity;BME280_pressure;Samples;Min_cycle;Max_cycle;Signal;HPM_P1;HPM_P2
2023/12/15 00:02:23;;;;;;;30.80;17.80;;;;;;;-0.09;100.00;100929.23;133867;1305;22384;-78
2023/12/15 00:05:24;;;;;;;31.00;17.90;;;;;;;-0.11;100.00;100933.17;133868;1304;22280;-78
2023/12/15 00:08:25;;;;;;;32.40;18.20;;;;;;;-0.13;100.00;100933.27;133858;1301;22426;-78
2023/12/15 00:11:28;;;;;;;;;;;;;;;-0.14;100.00;100940.61;133884;1308;22488;-78
2023/12/15 00:14:29;;;;;;;35.70;17.30;;;;;;;-0.13;100.00;100934.48;133875;1301;22249;-77
2023/12/15 00:17:30;;;;;;;35.10;19.90;;;;;;;-0.15;100.00;100940.48;133886;1301;22394;-78
2023/12/15 00:20:34;;;;;;;31.80;19.50;;;;;;;-0.15;100.00;100939.98;133873;1308;22543;-78
2023/12/15 00:23:40;;;;;;;33.10;18.60;;;;;;;-0.14;100.00;100949.51;133725;1308;22437;-78
2023/12/15 00:26:47;;;;;;;31.60;17.80;;;;;;;-0.13;100.00;100954.86;133843;1304;22426;-79
2023/12/15 00:29:57;;;;;;;32.60;18.90;;;;;;;-0.12;100.00;100955.64;133865;1308;22363;-78
2023/12/15 00:32:58;;;;;;;31.80;18.60;;;;;;;-0.14;100.00;100969.67;133848;1304;23131;-78
2023/12/15 00:36:02;;;;;;;;;;;;;;;-0.14;100.00;100970.17;133895;1308;22470;-78
2023/12/15 00:39:03;;;;;;;31.80;18.80;;;;;;;-0.13;100.00;100973.44;133867;1301;22377;-78
2023/12/15 00:42:07;;;;;;;29.90;17.50;;;;;;;-0.13;100.00;100981.07;133875;1301;22405;-79
2023/12/15 00:45:09;;;;;;;33.50;18.40;;;;;;;-0.14;100.00;100984.96;133824;1301;22474;-78
2023/12/15 00:48:13;;;;;;;31.80;17.60;;;;;;;-0.16;100.00;100988.88;133853;1302;22485;-78
2023/12/15 00:51:16;;;;;;;31.30;18.80;;;;;;;-0.19;100.00;100990.42;133856;1308;22389;-79
2023/12/15 00:54:17;;;;;;;;;;;;;;;-0.24;100.00;101000.94;133860;1301;23259;-79
2023/12/15 00:57:19;;;;;;;37.40;20.50;;;;;;;-0.28;100.00;101004.07;133729;1308;22256;-78
2023/12/15 01:00:28;;;;;;;39.50;20.50;;;;;;;-0.32;100.00;101009.13;133860;1302;22290;-78
2023/12/15 01:03:30;;;;;;;35.90;19.30;;;;;;;-0.35;100.00;101018.34;133844;1301;23006;-79
2023/12/15 01:06:31;;;;;;;33.70;19.30;;;;;;;-0.38;100.00;101027.05;133882;1302;22390;-79
2023/12/15 01:09:35;;;;;;;39.90;21.60;;;;;;;-0.42;100.00;101029.32;133874;1308;22395;-79
2023/12/15 01:12:39;;;;;;;37.70;20.40;;;;;;;-0.45;100.00;101032.95;133841;1301;22484;-79
2023/12/15 01:15:39;;;;;;;40.80;22.00;;;;;;;-0.48;100.00;101039.30;133848;1301;22342;-78
2023/12/15 01:18:41;;;;;;;38.10;21.10;;;;;;;-0.49;100.00;101042.62;133840;1301;22494;-78
2023/12/15 01:21:44;;;;;;;41.30;21.40;;;;;;;-0.49;100.00;101043.49;133880;1308;22481;-79
2023/12/15 01:24:54;;;;;;;37.10;21.40;;;;;;;-0.48;100.00;101056.87;133850;1301;22471;-78
2023/12/15 01:28:29;;;;;;;42.30;22.40;;;;;;;-0.49;100.00;101061.23;133863;1304;23101;-79
2023/12/15 01:31:35;;;;;;;39.90;22.10;;;;;;;-0.49;100.00;101060.90;133843;1308;22391;-78
2023/12/15 01:34:38;;;;;;;38.40;20.80;;;;;;;-0.49;100.00;101073.22;133834;1301;22582;-78
2023/12/15 01:37:48;;;;;;;39.60;21.00;;;;;;;-0.48;100.00;101073.55;133842;1308;22434;-78
2023/12/15 01:41:15;;;;;;;39.00;21.60;;;;;;;-0.46;100.00;101075.86;133855;1308;22427;-78
2023/12/15 01:44:35;;;;;;;35.20;21.40;;;;;;;-0.45;100.00;101080.55;133878;1308;22280;-78
2023/12/15 01:48:16;;;;;;;39.40;22.30;;;;;;;-0.45;100.00;101083.34;133874;1304;22215;-78
2023/12/15 01:51:20;;;;;;;37.40;21.50;;;;;;;-0.43;100.00;101086.86;133855;1308;22272;-79
2023/12/15 01:54:27;;;;;;;43.40;23.30;;;;;;;-0.42;100.00;101088.94;133860;1308;22384;-78
2023/12/15 01:57:30;;;;;;;41.20;22.00;;;;;;;-0.42;100.00;101090.30;133863;1301;23079;-78
2023/12/15 02:00:33;;;;;;;41.30;22.60;;;;;;;-0.42;100.00;101092.90;133860;1305;23153;-79
2023/12/15 02:03:35;;;;;;;40.10;22.00;;;;;;;-0.43;100.00;101100.45;133870;1308;22454;-78
2023/12/15 02:06:39;;;;;;;40.70;22.80;;;;;;;-0.44;100.00;101103.27;133852;1301;22414;-78
2023/12/15 02:09:43;;;;;;;38.50;20.90;;;;;;;-0.45;100.00;101112.70;133832;1308;22359;-78
2023/12/15 02:12:44;;;;;;;41.80;21.70;;;;;;;-0.45;100.00;101110.95;133872;1308;22445;-78
2023/12/15 02:15:44;;;;;;;37.70;20.60;;;;;;;-0.42;100.00;101110.48;133858;1301;22609;-78
2023/12/15 02:18:45;;;;;;;38.50;21.90;;;;;;;-0.41;100.00;101115.66;133888;1302;22482;-78
2023/12/15 02:21:46;;;;;;;35.90;22.20;;;;;;;-0.43;100.00;101115.89;133854;1307;22264;-77
2023/12/15 02:24:47;;;;;;;42.80;23.40;;;;;;;-0.42;100.00;101121.08;133846;1307;22297;-76
2023/12/15 02:27:47;;;;;;;42.70;21.70;;;;;;;-0.41;100.00;101119.84;133848;1301;22443;-77
2023/12/15 02:30:48;;;;;;;;;;;;;;;-0.42;100.00;101123.50;133857;1301;22463;-77
2023/12/15 02:33:49;;;;;;;34.80;20.90;;;;;;;-0.41;100.00;101124.54;133862;1301;22359;-77
2023/12/15 02:36:51;;;;;;;38.00;21.50;;;;;;;-0.42;100.00;101121.61;133876;1300;22423;-77
2023/12/15 02:39:52;;;;;;;38.10;20.60;;;;;;;-0.41;100.00;101116.20;133817;1304;22358;-77
2023/12/15 02:42:53;;;;;;;42.80;21.30;;;;;;;-0.42;100.00;101120.73;133865;1307;22446;-77
2023/12/15 02:45:53;;;;;;;;;;;;;;;-0.44;100.00;101125.02;133854;1302;22459;-77
2023/12/15 02:49:18;;;;;;;40.50;21.70;;;;;;;-0.47;100.00;101123.70;133872;1304;22377;-77
2023/12/15 02:52:22;;;;;;;38.00;22.40;;;;;;;-0.47;100.00;101122.34;133849;1307;23250;-77
2023/12/15 02:55:27;;;;;;;38.00;21.40;;;;;;;-0.48;100.00;101130.40;133839;1307;22201;-77
2023/12/15 02:58:29;;;;;;;40.60;22.20;;;;;;;-0.51;100.00;101132.09;133888;1307;22506;-77
2023/12/15 03:01:35;;;;;;;40.00;21.30;;;;;;;-0.53;100.00;101138.61;133820;1301;22369;-77
2023/12/15 03:04:39;;;;;;;39.90;22.00;;;;;;;-0.57;100.00;101139.99;133852;1307;22235;-76
2023/12/15 03:07:40;;;;;;;39.20;22.60;;;;;;;-0.61;100.00;101150.98;133863;1301;23043;-77
2023/12/15 03:10:51;;;;;;;37.50;21.50;;;;;;;-0.64;100.00;101153.73;133817;1304;22499;-76
2023/12/15 03:13:52;;;;;;;38.20;21.60;;;;;;;-0.67;100.00;101160.98;133875;1307;22492;-78
2023/12/15 03:16:56;;;;;;;42.60;22.60;;;;;;;-0.71;100.00;101169.49;133856;1301;23182;-77
2023/12/15 03:20:03;;;;;;;39.60;21.40;;;;;;;-0.74;100.00;101172.45;133872;1307;22389;-77
2023/12/15 03:23:04;;;;;;;33.80;20.80;;;;;;;-0.77;100.00;101175.36;133876;1301;22965;-76
2023/12/15 03:26:06;;;;;;;33.80;19.50;;;;;;;-0.81;100.00;101178.48;133845;1301;22928;-77
2023/12/15 03:29:07;;;;;;;38.70;21.50;;;;;;;-0.86;100.00;101177.48;133853;1307;22541;-77
2023/12/15 03:32:08;;;;;;;37.60;20.50;;;;;;;-0.89;100.00;101182.69;133853;1301;23252;-77
2023/12/15 03:35:09;;;;;;;;;;;;;;;-0.92;100.00;101182.23;133879;1300;23739;-77
2023/12/15 03:38:12;;;;;;;35.90;19.90;;;;;;;-0.95;100.00;101192.45;133830;1302;22447;-77
2023/12/15 03:41:18;;;;;;;36.30;21.60;;;;;;;-0.98;100.00;101190.66;133814;1302;22489;-76
2023/12/15 03:44:22;;;;;;;42.70;23.20;;;;;;;-1.05;100.00;101193.07;133870;1304;22857;-77
2023/12/15 03:47:23;;;;;;;;;;;;;;;-1.09;100.00;101200.52;133889;1301;22555;-77
2023/12/15 03:50:30;;;;;;;38.60;21.90;;;;;;;-1.12;100.00;101202.39;133853;1307;22909;-77
2023/12/15 03:53:31;;;;;;;40.30;22.00;;;;;;;-1.13;100.00;101202.78;133834;1301;22431;-77
2023/12/15 03:56:34;;;;;;;40.80;22.70;;;;;;;-1.12;100.00;101207.95;133853;1301;22859;-78
2023/12/15 03:59:40;;;;;;;38.60;21.20;;;;;;;-1.10;100.00;101213.60;133861;1307;23556;-77
2023/12/15 04:02:41;;;;;;;40.10;22.40;;;;;;;-1.10;100.00;101223.68;133847;1301;23051;-77
2023/12/15 04:05:41;;;;;;;;;;;;;;;-1.10;100.00;101222.80;133850;1304;22506;-78
2023/12/15 04:08:45;;;;;;;37.40;22.40;;;;;;;-1.08;100.00;101225.69;133846;1301;23236;-80
2023/12/15 04:11:46;;;;;;;40.80;21.80;;;;;;;-1.07;100.00;101225.46;133849;1308;23074;-80
2023/12/15 04:14:50;;;;;;;38.40;21.00;;;;;;;-1.05;100.00;101232.83;133845;1308;22374;-80
2023/12/15 04:18:04;;;;;;;40.10;22.30;;;;;;;-1.02;100.00;101242.10;133871;1308;22436;-81
2023/12/15 04:21:11;;;;;;;43.40;24.50;;;;;;;-1.00;100.00;101247.23;133831;1301;22384;-80
2023/12/15 04:24:18;;;;;;;47.30;25.40;;;;;;;-0.99;100.00;101249.59;133733;1301;22367;-80
2023/12/15 04:27:19;;;;;;;106.20;43.60;;;;;;;-0.97;100.00;101262.34;133855;1302;22599;-81
2023/12/15 04:30:23;;;;;;;120.30;46.00;;;;;;;-0.96;100.00;101266.83;133731;1301;23073;-81
2023/12/15 04:33:24;;;;;;;158.30;56.60;;;;;;;-0.97;100.00;101271.38;133847;1302;23081;-80
2023/12/15 04:36:26;;;;;;;147.60;51.20;;;;;;;-0.96;100.00;101276.04;133835;1308;23368;-80
2023/12/15 04:39:36;;;;;;;151.70;52.30;;;;;;;-0.95;100.00;101278.28;133841;1308;23701;-81
2023/12/15 04:42:36;;;;;;;112.60;42.50;;;;;;;-0.93;100.00;101284.41;133846;1305;22667;-80
2023/12/15 04:45:41;;;;;;;;;;;;;;;-0.91;100.00;101285.58;133825;1308;22588;-81
2023/12/15 04:48:44;;;;;;;62.50;27.80;;;;;;;-0.90;100.00;101295.09;133840;1305;22468;-81
2023/12/15 04:51:45;;;;;;;51.90;26.80;;;;;;;-0.88;100.00;101297.77;133834;1308;22667;-81
2023/12/15 04:54:51;;;;;;;48.00;24.80;;;;;;;-0.86;100.00;101302.23;133874;1302;23184;-80
2023/12/15 04:57:57;;;;;;;50.10;26.00;;;;;;;-0.85;100.00;101300.61;133880;1308;22432;-82
2023/12/15 05:00:58;;;;;;;53.00;28.20;;;;;;;-0.82;100.00;101310.02;133858;1308;22420;-81
2023/12/15 05:04:04;;;;;;;55.80;29.80;;;;;;;-0.80;100.00;101312.58;133836;1308;22381;-80
2023/12/15 05:07:07;;;;;;;55.50;29.00;;;;;;;-0.78;100.00;101318.55;133835;1305;22357;-81
2023/12/15 05:10:08;;;;;;;52.50;28.50;;;;;;;-0.75;100.00;101322.23;133836;1308;23032;-81
2023/12/15 05:13:13;;;;;;;63.20;28.40;;;;;;;-0.71;100.00;101323.61;133822;1301;23151;-81
2023/12/15 05:16:13;;;;;;;;;;;;;;;-0.66;100.00;101324.49;133848;1307;22521;-81
2023/12/15 05:19:22;;;;;;;49.90;25.30;;;;;;;-0.67;100.00;101323.45;131213;1308;3531093;-82
2023/12/15 05:22:23;;;;;;;47.90;24.20;;;;;;;-0.66;100.00;101323.95;133833;1301;23633;-79
2023/12/15 05:25:35;;;;;;;;;;;;;;;;;;;;;
2023/12/15 05:28:46;;;;;;;45.00;24.90;;;;;;;-0.64;100.00;101326.83;133857;1308;22340;-81
2023/12/15 05:31:52;;;;;;;43.00;24.70;;;;;;;-0.60;100.00;101335.35;133858;1308;23149;-80
2023/12/15 05:34:53;;;;;;;46.40;25.30;;;;;;;-0.57;100.00;101337.85;133816;1306;22476;-82
2023/12/15 05:37:57;;;;;;;42.90;23.90;;;;;;;-0.57;100.00;101340.41;133838;1302;22381;-81
2023/12/15 05:40:58;;;;;;;44.50;23.50;;;;;;;-0.55;100.00;101344.00;133821;1308;22267;-82
2023/12/15 05:44:01;;;;;;;45.20;25.10;;;;;;;-0.54;100.00;101347.59;133835;1308;22385;-82
2023/12/15 05:47:11;;;;;;;41.80;24.00;;;;;;;-0.52;100.00;101347.86;133853;1304;22404;-81
2023/12/15 05:50:15;;;;;;;43.00;24.50;;;;;;;-0.50;100.00;101355.58;133848;1305;22569;-82
2023/12/15 05:53:22;;;;;;;45.80;24.40;;;;;;;-0.50;100.00;101362.20;133821;1302;22443;-79
2023/12/15 05:56:23;;;;;;;37.40;23.10;;;;;;;-0.51;100.00;101369.55;133801;1304;22467;-79
2023/12/15 05:59:24;;;;;;;44.70;24.20;;;;;;;-0.52;100.00;101370.80;133859;1302;22457;-75
2023/12/15 06:02:25;;;;;;;42.90;22.70;;;;;;;-0.52;100.00;101376.20;133826;1302;22211;-76
2023/12/15 06:05:27;;;;;;;49.30;26.50;;;;;;;-0.53;100.00;101377.61;133825;1302;22407;-79
2023/12/15 06:08:28;;;;;;;46.00;25.50;;;;;;;-0.52;100.00;101387.98;133824;1299;22453;-79
2023/12/15 06:11:29;;;;;;;51.10;25.90;;;;;;;-0.49;100.00;101388.75;133823;1308;22360;-77
2023/12/15 06:14:30;;;;;;;;;;;;;;;-0.48;100.00;101390.27;133823;1298;22477;-78
2023/12/15 06:17:31;;;;;;;48.00;24.50;;;;;;;-0.46;100.00;101394.88;133825;1302;22286;-78
2023/12/15 06:20:32;;;;;;;46.40;24.70;;;;;;;-0.45;100.00;101401.09;133822;1303;22472;-78
2023/12/15 06:23:33;;;;;;;45.00;25.10;;;;;;;-0.46;100.00;101409.13;133795;1308;22512;-78
2023/12/15 06:26:37;;;;;;;40.80;23.20;;;;;;;-0.44;100.00;101415.52;133831;1304;23309;-78
2023/12/15 06:29:41;;;;;;;41.80;24.00;;;;;;;-0.43;100.00;101419.61;133865;1302;22436;-78
2023/12/15 06:32:41;;;;;;;;;;;;;;;-0.39;100.00;101421.20;133868;1308;22469;-78
2023/12/15 06:35:45;;;;;;;42.90;23.00;;;;;;;-0.37;100.00;101429.30;133848;1301;22295;-78
2023/12/15 06:38:45;;;;;;;;;;;;;;;-0.36;100.00;101437.59;133901;1298;22461;-78
2023/12/15 06:41:46;;;;;;;49.40;26.20;;;;;;;-0.37;100.00;101446.50;133856;1308;22348;-78
2023/12/15 06:44:47;;;;;;;;;;;;;;;-0.36;100.00;101451.83;133883;1308;22482;-78
2023/12/15 06:47:48;;;;;;;43.80;22.90;;;;;;;-0.33;100.00;101455.70;133857;1302;22416;-78
2023/12/15 06:50:49;;;;;;;41.90;23.70;;;;;;;-0.30;100.00;101454.39;133869;1308;22488;-78
2023/12/15 06:53:49;;;;;;;49.50;23.40;;;;;;;-0.27;100.00;101459.99;133865;1308;22493;-78
2023/12/15 06:56:53;;;;;;;43.20;24.50;;;;;;;-0.25;100.00;101462.68;133856;1308;22273;-78
2023/12/15 06:59:56;;;;;;;43.10;23.10;;;;;;;-0.23;100.00;101462.77;133848;1302;22418;-78
2023/12/15 07:03:00;;;;;;;40.60;23.60;;;;;;;-0.20;100.00;101474.98;133849;1300;22360;-78
2023/12/15 07:06:01;;;;;;;47.20;23.70;;;;;;;-0.18;100.00;101479.61;133857;1308;22369;-78
2023/12/15 07:09:02;;;;;;;38.90;23.40;;;;;;;-0.17;100.00;101476.77;133838;1303;22445;-78
2023/12/15 07:12:03;;;;;;;41.90;23.60;;;;;;;-0.17;100.00;101482.88;133885;1298;22383;-78
2023/12/15 07:15:05;;;;;;;43.00;24.40;;;;;;;-0.17;100.00;101481.14;133903;1308;22265;-78
2023/12/15 07:18:39;;;;;;;;;;;;;;;;;;;;;
2023/12/15 07:21:48;;;;;;;36.40;22.50;;;;;;;-0.14;100.00;101483.96;133858;1301;22250;-78
2023/12/15 07:24:49;;;;;;;40.40;22.50;;;;;;;-0.14;100.00;101488.11;133885;1304;22352;-78
2023/12/15 07:28:00;;;;;;;64.30;29.70;;;;;;;-0.11;100.00;101496.55;133893;1299;22438;-78
2023/12/15 07:31:01;;;;;;;;;;;;;;;-0.08;100.00;101497.63;133852;1308;22481;-78
2023/12/15 07:34:02;;;;;;;66.50;29.40;;;;;;;-0.06;100.00;101505.90;133898;1308;22457;-78
2023/12/15 07:37:03;;;;;;;64.90;27.60;;;;;;;-0.04;100.00;101513.10;133891;1304;23078;-78
2023/12/15 07:40:08;;;;;;;61.60;29.70;;;;;;;-0.01;100.00;101515.07;133865;1301;22400;-78
2023/12/15 07:43:11;;;;;;;78.60;35.50;;;;;;;0.02;100.00;101520.70;133857;1301;22223;-78
2023/12/15 07:46:16;;;;;;;84.50;37.20;;;;;;;0.05;100.00;101522.13;133860;1307;22395;-78
2023/12/15 07:49:18;;;;;;;50.40;25.40;;;;;;;0.08;100.00;101523.23;133887;1302;22274;-78
2023/12/15 07:52:21;;;;;;;;;;;;;;;0.10;100.00;101525.72;133854;1304;22534;-78
2023/12/15 07:55:25;;;;;;;45.50;26.90;;;;;;;0.11;100.00;101530.38;133854;1301;22638;-78
2023/12/15 07:58:29;;;;;;;48.80;27.10;;;;;;;0.13;100.00;101533.98;133870;1308;22457;-78
2023/12/15 08:01:30;;;;;;;50.70;29.20;;;;;;;0.13;100.00;101536.58;133888;1304;23168;-77
2023/12/15 08:04:30;;;;;;;;;;;;;;;0.12;100.00;101547.22;133853;1308;22555;-77
2023/12/15 08:07:32;;;;;;;53.80;29.40;;;;;;;0.13;100.00;101552.08;133872;1308;22365;-78
2023/12/15 08:10:34;;;;;;;49.90;27.20;;;;;;;0.15;100.00;101553.37;133855;1301;22429;-78
2023/12/15 08:13:38;;;;;;;47.30;28.10;;;;;;;0.16;100.00;101549.64;133889;1304;23348;-77
2023/12/15 08:16:39;;;;;;;47.00;27.50;;;;;;;0.18;100.00;101555.49;133874;1307;22204;-78
2023/12/15 08:19:41;;;;;;;46.00;27.70;;;;;;;0.18;100.00;101554.97;133871;1302;23177;-77
2023/12/15 08:22:42;;;;;;;47.90;27.00;;;;;;;0.20;100.00;101561.15;133882;1301;23208;-77
2023/12/15 08:25:42;;;;;;;46.30;26.10;;;;;;;0.23;100.00;101566.98;133861;1308;22285;-77
2023/12/15 08:28:43;;;;;;;51.90;28.00;;;;;;;0.24;100.00;101571.27;133869;1308;23065;-77
2023/12/15 08:31:57;;;;;;;;;;;;;;;;;;;;;
2023/12/15 08:35:03;;;;;;;47.80;26.20;;;;;;;0.30;100.00;101588.44;133864;1302;22294;-77
2023/12/15 08:38:07;;;;;;;49.70;26.60;;;;;;;0.33;100.00;101595.25;133840;1308;23046;-78
2023/12/15 08:41:11;;;;;;;49.60;28.40;;;;;;;0.37;100.00;101597.51;133844;1308;22472;-77
2023/12/15 08:44:12;;;;;;;54.00;29.20;;;;;;;0.41;100.00;101596.47;133891;1308;22462;-78
2023/12/15 08:47:15;;;;;;;51.10;27.80;;;;;;;0.45;100.00;101599.27;133883;1308;22268;-78
2023/12/15 08:50:16;;;;;;;45.50;25.90;;;;;;;0.48;100.00;101607.14;133884;1302;22444;-78
2023/12/15 08:53:18;;;;;;;48.90;27.10;;;;;;;0.52;100.00;101604.70;133872;1301;22405;-78
2023/12/15 08:56:19;;;;;;;54.50;28.50;;;;;;;0.57;100.00;101609.73;133877;1301;22447;-78
2023/12/15 08:59:20;;;;;;;;;;;;;;;0.61;100.00;101613.20;133884;1301;22476;-78
2023/12/15 09:02:21;;;;;;;46.60;26.00;;;;;;;0.65;100.00;101617.39;133862;1301;22364;-78
2023/12/15 09:05:23;;;;;;;48.40;27.50;;;;;;;0.70;100.00;101620.15;133845;1308;23036;-79
2023/12/15 09:08:24;;;;;;;51.80;29.40;;;;;;;0.71;100.00;101619.03;133885;1308;23138;-79
2023/12/15 09:11:25;;;;;;;50.80;29.50;;;;;;;0.75;100.00;101619.05;133867;1305;22264;-78
2023/12/15 09:14:47;;;;;;;50.30;27.80;;;;;;;0.79;100.00;101623.41;133874;1301;22259;-79
2023/12/15 09:17:48;;;;;;;52.40;30.10;;;;;;;0.82;100.00;101621.70;133857;1308;22441;-78
2023/12/15 09:20:49;;;;;;;49.10;27.00;;;;;;;0.84;100.00;101617.41;133859;1308;23533;-79
2023/12/15 09:23:57;;;;;;;46.30;26.30;;;;;;;0.86;100.00;101625.15;133835;1308;22356;-79
2023/12/15 09:27:16;;;;;;;48.40;26.50;;;;;;;0.88;100.00;101622.98;133857;1308;23125;-79
2023/12/15 09:30:17;;;;;;;51.30;26.80;;;;;;;0.90;100.00;101628.15;133866;1308;22401;-79
2023/12/15 09:33:20;;;;;;;48.90;27.30;;;;;;;0.90;100.00;101632.67;133868;1308;22377;-79
2023/12/15 09:36:21;;;;;;;44.50;26.70;;;;;;;0.94;100.00;101638.95;133892;1304;22422;-79
2023/12/15 09:39:22;;;;;;;50.80;28.30;;;;;;;0.99;100.00;101638.40;133887;1307;22491;-78
2023/12/15 09:42:23;;;;;;;47.40;27.30;;;;;;;1.06;100.00;101642.95;133877;1307;22414;-79
2023/12/15 09:45:24;;;;;;;50.10;28.80;;;;;;;1.10;100.00;101648.19;133868;1307;23394;-79
2023/12/15 09:48:27;;;;;;;;;;;;;;;1.08;100.00;101649.66;133908;1301;23218;-79
2023/12/15 09:51:32;;;;;;;53.80;27.80;;;;;;;1.07;100.00;101647.60;133861;1301;22266;-79
2023/12/15 09:54:37;;;;;;;48.20;26.20;;;;;;;1.05;100.00;101650.48;133880;1307;22372;-79
2023/12/15 09:57:41;;;;;;;53.30;27.50;;;;;;;1.04;100.00;101653.30;133889;1300;22423;-79
2023/12/15 10:00:45;;;;;;;46.30;27.60;;;;;;;1.06;100.00;101650.10;133870;1301;22271;-79
2023/12/15 10:03:46;;;;;;;47.70;26.50;;;;;;;1.07;100.00;101661.02;133868;1307;23214;-78
2023/12/15 10:06:52;;;;;;;48.80;27.10;;;;;;;1.07;100.00;101660.48;133861;1304;23035;-79
2023/12/15 10:10:03;;;;;;;51.10;28.90;;;;;;;1.11;100.00;101660.85;133888;1301;22401;-79
2023/12/15 10:13:24;;;;;;;60.30;32.60;;;;;;;1.16;100.00;101660.44;133886;1301;23112;-79
2023/12/15 10:16:28;;;;;;;;;;;;;;;1.22;100.00;101668.01;133905;1307;22497;-79
2023/12/15 10:19:50;;;;;;;70.00;34.60;;;;;;;1.27;100.00;101671.29;133862;1307;22401;-79
2023/12/15 10:23:30;;;;;;;76.70;37.80;;;;;;;1.30;100.00;101671.81;133908;1307;23126;-79
2023/12/15 10:26:31;;;;;;;88.60;42.10;;;;;;;1.36;100.00;101667.92;133778;1301;22520;-79
2023/12/15 10:29:31;;;;;;;54.00;28.50;;;;;;;1.40;100.00;101668.61;133898;1307;22337;-79
2023/12/15 10:32:33;;;;;;;;;;;;;;;1.41;100.00;101669.77;133919;1301;23186;-79
2023/12/15 10:35:36;;;;;;;50.00;27.30;;;;;;;1.43;100.00;101672.49;133900;1307;22455;-79
2023/12/15 10:39:00;;;;;;;49.50;26.20;;;;;;;1.45;100.00;101664.18;133888;1307;22495;-79
2023/12/15 10:42:03;;;;;;;46.90;26.90;;;;;;;1.46;100.00;101669.89;133936;1307;23202;-79
2023/12/15 10:45:07;;;;;;;55.20;29.00;;;;;;;1.47;100.00;101670.72;133875;1307;23285;-79
2023/12/15 10:48:09;;;;;;;49.30;28.50;;;;;;;1.53;100.00;101674.47;133849;1301;22493;-79
2023/12/15 10:51:13;;;;;;;49.80;27.80;;;;;;;1.59;100.00;101683.27;133887;1307;23166;-79
2023/12/15 10:54:17;;;;;;;49.70;27.60;;;;;;;1.66;100.00;101687.45;133875;1307;23237;-79
2023/12/15 10:57:19;;;;;;;50.80;28.00;;;;;;;1.74;100.00;101683.27;133903;1301;22284;-79
2023/12/15 11:00:20;;;;;;;44.20;26.60;;;;;;;1.83;100.00;101680.77;133921;1307;23055;-79
2023/12/15 11:03:21;;;;;;;;;;;;;;;1.92;100.00;101677.17;133920;1301;22489;-79
2023/12/15 11:06:36;;;;;;;44.10;26.80;;;;;;;1.94;100.00;101672.02;133902;1301;22535;-79
2023/12/15 11:09:41;;;;;;;45.80;26.30;;;;;;;2.05;100.00;101671.84;133879;1301;23151;-79
2023/12/15 11:12:42;;;;;;;46.40;25.80;;;;;;;2.38;100.00;101678.08;133941;1301;23038;-79
2023/12/15 11:15:43;;;;;;;43.10;25.00;;;;;;;2.66;100.00;101682.60;133905;1301;23356;-79
2023/12/15 11:18:44;;;;;;;36.80;22.40;;;;;;;2.79;100.00;101676.38;133894;1298;22446;-80
2023/12/15 11:21:46;;;;;;;36.70;21.50;;;;;;;2.85;100.00;101677.14;133901;1308;22469;-79
2023/12/15 11:24:47;;;;;;;36.30;22.10;;;;;;;2.88;100.00;101679.39;133902;1298;23094;-80
2023/12/15 11:28:01;;;;;;;37.10;21.50;;;;;;;2.96;100.00;101690.21;133877;1301;23603;-79
2023/12/15 11:31:23;;;;;;;29.50;18.60;;;;;;;2.96;100.00;101695.59;133887;1301;22390;-79
2023/12/15 11:34:42;;;;;;;30.50;18.70;;;;;;;2.94;99.94;101701.13;133876;1308;22485;-79
2023/12/15 11:37:43;;;;;;;30.90;19.60;;;;;;;2.94;99.48;101703.21;133885;1301;23102;-79
2023/12/15 11:40:44;;;;;;;30.80;19.00;;;;;;;2.95;99.45;101702.80;133901;1308;23127;-79
2023/12/15 11:43:56;;;;;;;34.60;20.60;;;;;;;2.96;99.24;101694.56;133884;1302;22434;-79
2023/12/15 11:46:59;;;;;;;33.90;20.10;;;;;;;2.97;99.01;101692.92;133899;1301;22591;-80
2023/12/15 11:50:04;;;;;;;31.60;18.70;;;;;;;2.96;98.62;101691.77;133853;1308;23317;-79
2023/12/15 11:53:18;;;;;;;29.10;18.10;;;;;;;2.90;98.13;101692.25;133895;1304;22449;-79
2023/12/15 11:56:19;;;;;;;25.90;16.20;;;;;;;2.86;98.12;101691.20;133897;1308;23015;-80
2023/12/15 11:59:44;;;;;;;25.20;15.40;;;;;;;2.84;97.56;101687.67;133893;1301;22423;-79
2023/12/15 12:02:46;;;;;;;30.60;16.70;;;;;;;2.83;97.55;101693.80;133894;1304;23534;-79
2023/12/15 12:05:53;;;;;;;31.00;18.10;;;;;;;2.83;97.25;101691.20;133864;1308;23215;-79
2023/12/15 12:08:57;;;;;;;33.10;19.80;;;;;;;2.81;97.45;101688.67;133892;1298;22495;-79
2023/12/15 12:11:59;;;;;;;27.80;18.10;;;;;;;2.84;97.49;101685.02;133909;1301;23346;-79
2023/12/15 12:15:09;;;;;;;32.60;19.10;;;;;;;2.82;97.17;101683.90;133858;1304;22188;-79
2023/12/15 12:18:15;;;;;;;33.90;18.60;;;;;;;2.83;97.37;101689.14;133917;1291;22399;-79
2023/12/15 12:21:19;;;;;;;39.00;20.20;;;;;;;2.82;97.19;101687.23;133904;1295;22483;-79
2023/12/15 12:24:20;;;;;;;36.20;20.00;;;;;;;2.84;97.27;101688.02;133905;1301;22428;-79
2023/12/15 12:27:38;;;;;;;32.50;19.10;;;;;;;2.86;97.37;101688.41;133921;1285;22233;-79
2023/12/15 12:30:39;;;;;;;36.20;20.90;;;;;;;2.95;97.81;101689.38;133914;1308;22492;-79
2023/12/15 12:33:39;;;;;;;;;;;;;;;3.04;97.27;101681.20;133912;1301;22464;-79
2023/12/15 12:36:40;;;;;;;41.30;19.70;;;;;;;3.08;96.51;101683.77;133896;1308;22416;-79
2023/12/15 12:39:41;;;;;;;;;;;;;;;3.19;96.96;101690.73;133891;1296;22536;-79
2023/12/15 12:42:42;;;;;;;33.30;18.30;;;;;;;3.28;96.80;101694.27;133917;1308;22368;-79
2023/12/15 12:45:43;;;;;;;32.50;19.50;;;;;;;3.34;96.81;101679.61;133889;1304;22438;-79
2023/12/15 12:48:46;;;;;;;29.70;17.40;;;;;;;3.30;95.68;101680.17;133903;1308;22421;-79
2023/12/15 12:51:47;;;;;;;32.80;17.10;;;;;;;3.18;95.44;101685.89;133945;1300;22358;-79
2023/12/15 12:54:54;;;;;;;31.40;18.70;;;;;;;3.06;95.07;101689.97;133905;1308;22296;-79
2023/12/15 12:57:56;;;;;;;31.40;17.30;;;;;;;2.99;95.35;101699.33;133912;1307;22423;-79
2023/12/15 13:00:57;;;;;;;34.30;18.80;;;;;;;2.97;95.83;101706.07;133902;1296;22464;-79
2023/12/15 13:03:58;;;;;;;40.40;21.00;;;;;;;2.95;96.06;101714.17;133838;1301;22525;-79
2023/12/15 13:06:59;;;;;;;38.00;20.70;;;;;;;2.93;96.26;101713.95;133885;1301;22433;-79
2023/12/15 13:10:00;;;;;;;41.30;22.50;;;;;;;2.90;95.92;101721.27;133884;1301;23382;-79
2023/12/15 13:13:12;;;;;;;39.60;21.70;;;;;;;2.86;96.34;101720.03;133884;1308;22673;-79
2023/12/15 13:16:15;;;;;;;31.80;19.00;;;;;;;2.82;96.04;101715.38;133886;1308;22397;-79
2023/12/15 13:19:25;;;;;;;36.10;21.00;;;;;;;2.79;96.28;101703.45;133901;1301;23226;-79
2023/12/15 13:22:28;;;;;;;31.60;19.50;;;;;;;2.80;96.52;101698.90;133895;1308;23559;-79
2023/12/15 13:25:29;;;;;;;29.50;18.80;;;;;;;2.70;95.27;101711.60;133902;1301;22466;-79
2023/12/15 13:28:35;;;;;;;33.60;19.40;;;;;;;2.59;95.47;101719.13;133887;1308;22371;-79
2023/12/15 13:31:36;;;;;;;32.40;20.00;;;;;;;2.50;95.55;101717.84;133908;1301;22458;-79
2023/12/15 13:34:58;;;;;;;;;;;;;;;2.41;95.38;101721.78;133913;1301;22471;-79
2023/12/15 13:38:02;;;;;;;30.50;19.20;;;;;;;2.30;95.78;101737.02;133886;1308;22268;-79
2023/12/15 13:41:05;;;;;;;29.80;18.20;;;;;;;2.22;95.92;101739.10;133898;1308;22377;-79
2023/12/15 13:44:06;;;;;;;30.40;19.10;;;;;;;2.14;95.81;101740.00;133741;1298;23158;-79
2023/12/15 13:47:10;;;;;;;;;;;;;;;2.13;96.00;101750.05;133928;1301;22460;-79
2023/12/15 13:50:11;;;;;;;30.90;19.30;;;;;;;2.12;96.28;101755.84;133891;1307;22257;-79
2023/12/15 13:53:12;;;;;;;;;;;;;;;2.14;96.15;101753.80;133899;1307;22524;-78
2023/12/15 13:56:15;;;;;;;24.30;15.90;;;;;;;2.15;96.49;101755.86;133914;1307;22356;-79
2023/12/15 13:59:16;;;;;;;29.90;17.90;;;;;;;2.15;96.11;101759.38;133919;1301;22463;-79